DLH2122 EKCH-EDDC
Flight info
| Callsign | DLH2122 |
|---|---|
| Flight time | 0h 46m |
| Altitude | 37000 |
| Route | SALLO DCT BEBEB Z14 USEDU/N0417F390 DCT IDOBA M725 KOBUS P31 GARKI |
| Aircraft | A20N/M-SDE2E3FGHIRWXY/LB1 |
Departure
| Time | 2026-04-24 11:59 |
|---|---|
| Airport | Copenhagen Kastrup Airport (EKCH) |
Arrival
| Time | 2026-04-24 12:45 |
|---|---|
| Airport | Dresden Airport (EDDC) |
| Time | Latitude | Longitude | Altitude | Speed | Heading |
|---|---|---|---|---|---|
| 2026-04-24 11:34 | 55.62712 | 12.64928 | 24 ft | 0 kts | 80° |
| 2026-04-24 11:47 | 55.62709 | 12.64899 | 24 ft | 4 kts | 80° |
| 2026-04-24 11:47 | 55.62704 | 12.64852 | 26 ft | 4 kts | 80° |
| 2026-04-24 11:47 | 55.62700 | 12.64805 | 26 ft | 4 kts | 80° |
| 2026-04-24 11:48 | 55.62696 | 12.64771 | 25 ft | 0 kts | 80° |
| 2026-04-24 11:51 | 55.62697 | 12.64781 | 25 ft | 6 kts | 80° |
| 2026-04-24 11:51 | 55.62691 | 12.64803 | 24 ft | 1 kts | 162° |
| 2026-04-24 11:52 | 55.62677 | 12.64800 | 24 ft | 2 kts | 185° |
| 2026-04-24 11:52 | 55.62663 | 12.64793 | 22 ft | 5 kts | 198° |
| 2026-04-24 11:52 | 55.62561 | 12.64770 | 23 ft | 16 kts | 179° |
| 2026-04-24 11:52 | 55.62453 | 12.64774 | 27 ft | 15 kts | 178° |
| 2026-04-24 11:53 | 55.62356 | 12.64784 | 26 ft | 13 kts | 178° |
| 2026-04-24 11:53 | 55.62284 | 12.64791 | 27 ft | 4 kts | 175° |
| 2026-04-24 11:53 | 55.62256 | 12.64795 | 27 ft | 5 kts | 178° |
| 2026-04-24 11:53 | 55.62222 | 12.64782 | 29 ft | 9 kts | 201° |
| 2026-04-24 11:54 | 55.62128 | 12.64678 | 30 ft | 29 kts | 213° |
| 2026-04-24 11:54 | 55.61915 | 12.64504 | 24 ft | 26 kts | 173° |
| 2026-04-24 11:54 | 55.61787 | 12.64544 | 24 ft | 19 kts | 169° |
| 2026-04-24 11:54 | 55.61676 | 12.64562 | 22 ft | 14 kts | 201° |
| 2026-04-24 11:55 | 55.61601 | 12.64480 | 23 ft | 13 kts | 213° |
| 2026-04-24 11:55 | 55.61523 | 12.64391 | 21 ft | 13 kts | 213° |
| 2026-04-24 11:55 | 55.61447 | 12.64303 | 22 ft | 14 kts | 213° |
| 2026-04-24 11:55 | 55.61363 | 12.64207 | 22 ft | 14 kts | 213° |
| 2026-04-24 11:56 | 55.61285 | 12.64118 | 20 ft | 13 kts | 213° |
| 2026-04-24 11:56 | 55.61191 | 12.64007 | 19 ft | 25 kts | 214° |
| 2026-04-24 11:56 | 55.61035 | 12.63826 | 22 ft | 22 kts | 211° |
| 2026-04-24 11:56 | 55.60936 | 12.63715 | 27 ft | 16 kts | 213° |
| 2026-04-24 11:57 | 55.60842 | 12.63613 | 25 ft | 15 kts | 201° |
| 2026-04-24 11:57 | 55.60767 | 12.63634 | 26 ft | 8 kts | 144° |
| 2026-04-24 11:57 | 55.60732 | 12.63697 | 27 ft | 7 kts | 131° |
| 2026-04-24 11:57 | 55.60693 | 12.63804 | 28 ft | 14 kts | 105° |
| 2026-04-24 11:58 | 55.60704 | 12.63900 | 29 ft | 6 kts | 58° |
| 2026-04-24 11:58 | 55.60730 | 12.63958 | 29 ft | 6 kts | 43° |
| 2026-04-24 11:58 | 55.60935 | 12.64278 | 27 ft | 79 kts | 39° |
| 2026-04-24 11:58 | 55.61575 | 12.65258 | 26 ft | 160 kts | 38° |
| 2026-04-24 11:59 | 55.62470 | 12.66630 | 666 ft | 176 kts | 35° |
| 2026-04-24 11:59 | 55.63468 | 12.67999 | 1558 ft | 186 kts | 31° |
| 2026-04-24 11:59 | 55.64548 | 12.69336 | 2385 ft | 199 kts | 31° |
| 2026-04-24 11:59 | 55.65739 | 12.70977 | 2869 ft | 237 kts | 37° |
| 2026-04-24 12:00 | 55.66996 | 12.73058 | 3629 ft | 252 kts | 39° |
| 2026-04-24 12:00 | 55.68276 | 12.75167 | 4811 ft | 251 kts | 38° |
| 2026-04-24 12:00 | 55.69577 | 12.77238 | 5947 ft | 252 kts | 37° |
| 2026-04-24 12:00 | 55.70801 | 12.79540 | 6913 ft | 262 kts | 50° |
| 2026-04-24 12:01 | 55.71617 | 12.82522 | 7794 ft | 278 kts | 72° |
| 2026-04-24 12:01 | 55.71640 | 12.85969 | 8667 ft | 294 kts | 101° |
| 2026-04-24 12:01 | 55.70628 | 12.89191 | 9566 ft | 307 kts | 134° |
| 2026-04-24 12:01 | 55.68816 | 12.91207 | 10380 ft | 315 kts | 159° |
| 2026-04-24 12:02 | 55.66678 | 12.92543 | 10798 ft | 337 kts | 163° |
| 2026-04-24 12:02 | 55.64396 | 12.93828 | 11402 ft | 351 kts | 163° |
| 2026-04-24 12:02 | 55.62048 | 12.95193 | 12210 ft | 358 kts | 162° |
| 2026-04-24 12:02 | 55.59668 | 12.96624 | 13091 ft | 363 kts | 162° |
| 2026-04-24 12:03 | 55.57292 | 12.98082 | 13920 ft | 369 kts | 161° |
| 2026-04-24 12:03 | 55.54849 | 12.99598 | 14697 ft | 374 kts | 161° |
| 2026-04-24 12:03 | 55.52381 | 13.01137 | 15491 ft | 378 kts | 162° |
| 2026-04-24 12:03 | 55.49890 | 13.02693 | 16296 ft | 382 kts | 162° |
| 2026-04-24 12:04 | 55.47369 | 13.04269 | 17107 ft | 386 kts | 162° |
| 2026-04-24 12:04 | 55.44818 | 13.05863 | 17925 ft | 390 kts | 162° |
| 2026-04-24 12:04 | 55.42239 | 13.07473 | 18653 ft | 395 kts | 162° |
| 2026-04-24 12:04 | 55.39636 | 13.09096 | 19315 ft | 399 kts | 162° |
| 2026-04-24 12:05 | 55.37000 | 13.10737 | 19981 ft | 403 kts | 163° |
| 2026-04-24 12:05 | 55.34336 | 13.12393 | 20647 ft | 408 kts | 163° |
| 2026-04-24 12:05 | 55.31678 | 13.14044 | 21285 ft | 412 kts | 163° |
| 2026-04-24 12:05 | 55.28963 | 13.15727 | 21934 ft | 416 kts | 163° |
| 2026-04-24 12:06 | 55.26219 | 13.17425 | 22578 ft | 420 kts | 163° |
| 2026-04-24 12:06 | 55.23441 | 13.19143 | 23216 ft | 424 kts | 164° |
| 2026-04-24 12:06 | 55.20642 | 13.20870 | 23784 ft | 428 kts | 164° |
| 2026-04-24 12:06 | 55.17816 | 13.22612 | 24287 ft | 432 kts | 164° |
| 2026-04-24 12:07 | 55.15004 | 13.24343 | 24787 ft | 435 kts | 164° |
| 2026-04-24 12:07 | 55.12131 | 13.26109 | 25285 ft | 438 kts | 164° |
| 2026-04-24 12:07 | 55.09240 | 13.27883 | 25741 ft | 442 kts | 164° |
| 2026-04-24 12:07 | 55.06320 | 13.29672 | 26204 ft | 446 kts | 164° |
| 2026-04-24 12:08 | 55.03375 | 13.31474 | 26632 ft | 449 kts | 165° |
| 2026-04-24 12:08 | 55.00446 | 13.33263 | 27077 ft | 452 kts | 165° |
| 2026-04-24 12:08 | 54.97465 | 13.35081 | 27527 ft | 455 kts | 165° |
| 2026-04-24 12:08 | 54.94466 | 13.36907 | 27968 ft | 458 kts | 165° |
| 2026-04-24 12:09 | 54.91422 | 13.38648 | 28407 ft | 460 kts | 165° |
| 2026-04-24 12:09 | 54.88530 | 13.41175 | 28795 ft | 472 kts | 147° |
| 2026-04-24 12:09 | 54.86162 | 13.45064 | 29177 ft | 479 kts | 129° |
| 2026-04-24 12:09 | 54.84275 | 13.49873 | 29572 ft | 483 kts | 121° |
| 2026-04-24 12:10 | 54.82560 | 13.54901 | 29949 ft | 486 kts | 121° |
| 2026-04-24 12:10 | 54.80785 | 13.59903 | 30289 ft | 489 kts | 123° |
| 2026-04-24 12:10 | 54.78863 | 13.64815 | 30593 ft | 492 kts | 126° |
| 2026-04-24 12:11 | 54.74665 | 13.74262 | 31168 ft | 498 kts | 130° |
| 2026-04-24 12:11 | 54.72450 | 13.78891 | 31468 ft | 499 kts | 131° |
| 2026-04-24 12:11 | 54.70209 | 13.83484 | 31869 ft | 499 kts | 131° |
| 2026-04-24 12:11 | 54.67963 | 13.88058 | 32285 ft | 499 kts | 131° |
| 2026-04-24 12:12 | 54.65718 | 13.92627 | 32672 ft | 499 kts | 131° |
| 2026-04-24 12:12 | 54.63473 | 13.97203 | 33051 ft | 499 kts | 131° |
| 2026-04-24 12:12 | 54.61267 | 14.01708 | 33416 ft | 499 kts | 131° |
| 2026-04-24 12:12 | 54.59018 | 14.06268 | 33778 ft | 498 kts | 134° |
| 2026-04-24 12:13 | 54.56416 | 14.10144 | 34101 ft | 492 kts | 152° |
| 2026-04-24 12:13 | 54.53343 | 14.12621 | 34332 ft | 483 kts | 169° |
| 2026-04-24 12:13 | 54.50079 | 14.13522 | 34591 ft | 469 kts | 187° |
| 2026-04-24 12:13 | 54.46914 | 14.12832 | 34873 ft | 451 kts | 204° |
| 2026-04-24 12:14 | 54.44066 | 14.10803 | 35176 ft | 438 kts | 215° |
| 2026-04-24 12:14 | 54.41359 | 14.08403 | 35456 ft | 438 kts | 214° |
| 2026-04-24 12:14 | 54.38597 | 14.06301 | 35746 ft | 443 kts | 208° |
| 2026-04-24 12:14 | 54.35635 | 14.04649 | 36021 ft | 449 kts | 202° |
| 2026-04-24 12:15 | 54.32574 | 14.03481 | 36290 ft | 453 kts | 197° |
| 2026-04-24 12:15 | 54.29440 | 14.02659 | 36551 ft | 456 kts | 194° |
| 2026-04-24 12:15 | 54.26279 | 14.02042 | 36810 ft | 458 kts | 193° |
| 2026-04-24 12:15 | 54.23104 | 14.01516 | 37031 ft | 459 kts | 192° |
| 2026-04-24 12:16 | 54.19920 | 14.01011 | 37064 ft | 460 kts | 192° |
| 2026-04-24 12:16 | 54.13569 | 13.99965 | 37063 ft | 457 kts | 193° |
| 2026-04-24 12:17 | 54.07245 | 13.98848 | 37064 ft | 457 kts | 193° |
| 2026-04-24 12:17 | 54.00967 | 13.97704 | 37069 ft | 457 kts | 193° |
| 2026-04-24 12:18 | 53.94623 | 13.96710 | 37069 ft | 460 kts | 188° |
| 2026-04-24 12:18 | 53.88174 | 13.96899 | 37069 ft | 465 kts | 183° |
| 2026-04-24 12:19 | 53.81708 | 13.97553 | 37075 ft | 465 kts | 182° |
| 2026-04-24 12:19 | 53.76335 | 13.98078 | 37075 ft | 465 kts | 183° |
| 2026-04-24 12:20 | 53.69874 | 13.98623 | 37078 ft | 464 kts | 183° |
| 2026-04-24 12:20 | 53.62366 | 13.99196 | 37081 ft | 464 kts | 183° |
| 2026-04-24 12:21 | 53.56955 | 13.99600 | 37086 ft | 464 kts | 183° |
| 2026-04-24 12:21 | 53.50536 | 14.00082 | 37079 ft | 464 kts | 183° |
| 2026-04-24 12:22 | 53.44081 | 14.00567 | 37082 ft | 464 kts | 183° |
| 2026-04-24 12:22 | 53.37613 | 14.01053 | 37081 ft | 464 kts | 183° |
| 2026-04-24 12:23 | 53.31182 | 14.01534 | 37090 ft | 466 kts | 183° |
| 2026-04-24 12:23 | 53.24693 | 14.02018 | 37092 ft | 467 kts | 183° |
| 2026-04-24 12:24 | 53.18198 | 14.02503 | 37092 ft | 467 kts | 183° |
| 2026-04-24 12:24 | 53.11705 | 14.02987 | 37088 ft | 466 kts | 182° |
| 2026-04-24 12:25 | 53.05211 | 14.03468 | 37098 ft | 466 kts | 182° |
| 2026-04-24 12:25 | 52.98769 | 14.03944 | 37102 ft | 466 kts | 182° |
| 2026-04-24 12:26 | 52.92278 | 14.04421 | 37016 ft | 465 kts | 182° |
| 2026-04-24 12:26 | 52.89057 | 14.04660 | 36693 ft | 458 kts | 182° |
| 2026-04-24 12:26 | 52.85906 | 14.04897 | 36480 ft | 449 kts | 182° |
| 2026-04-24 12:26 | 52.82813 | 14.05131 | 36283 ft | 439 kts | 182° |
| 2026-04-24 12:27 | 52.79827 | 14.05355 | 36094 ft | 430 kts | 183° |
| 2026-04-24 12:27 | 52.76865 | 14.05575 | 35863 ft | 422 kts | 183° |
| 2026-04-24 12:27 | 52.73945 | 14.05787 | 35544 ft | 418 kts | 183° |
| 2026-04-24 12:27 | 52.71048 | 14.05995 | 35198 ft | 414 kts | 183° |
| 2026-04-24 12:28 | 52.68182 | 14.06200 | 34834 ft | 411 kts | 183° |
| 2026-04-24 12:28 | 52.65329 | 14.06403 | 34475 ft | 408 kts | 183° |
| 2026-04-24 12:28 | 52.62501 | 14.06606 | 34117 ft | 405 kts | 183° |
| 2026-04-24 12:28 | 52.59695 | 14.06807 | 33728 ft | 402 kts | 183° |
| 2026-04-24 12:29 | 52.56942 | 14.07006 | 33355 ft | 398 kts | 183° |
| 2026-04-24 12:29 | 52.54178 | 14.07205 | 32985 ft | 395 kts | 183° |
| 2026-04-24 12:29 | 52.51440 | 14.07403 | 32632 ft | 392 kts | 183° |
| 2026-04-24 12:29 | 52.48730 | 14.07599 | 32289 ft | 388 kts | 183° |
| 2026-04-24 12:30 | 52.46035 | 14.07791 | 31879 ft | 387 kts | 183° |
| 2026-04-24 12:30 | 52.43352 | 14.07983 | 31512 ft | 384 kts | 183° |
| 2026-04-24 12:30 | 52.40684 | 14.08174 | 31166 ft | 381 kts | 182° |
| 2026-04-24 12:30 | 52.38044 | 14.08364 | 30855 ft | 377 kts | 182° |
| 2026-04-24 12:31 | 52.35433 | 14.08552 | 30519 ft | 374 kts | 182° |
| 2026-04-24 12:31 | 52.32878 | 14.08735 | 30200 ft | 371 kts | 182° |
| 2026-04-24 12:31 | 52.30300 | 14.09030 | 29800 ft | 370 kts | 179° |
| 2026-04-24 12:31 | 52.27747 | 14.09487 | 29442 ft | 368 kts | 177° |
| 2026-04-24 12:32 | 52.25213 | 14.10027 | 29072 ft | 365 kts | 176° |
| 2026-04-24 12:32 | 52.22704 | 14.10591 | 28705 ft | 362 kts | 176° |
| 2026-04-24 12:32 | 52.20216 | 14.11151 | 28358 ft | 359 kts | 176° |
| 2026-04-24 12:32 | 52.17773 | 14.11688 | 28013 ft | 357 kts | 176° |
| 2026-04-24 12:33 | 52.15322 | 14.12214 | 27654 ft | 354 kts | 176° |
| 2026-04-24 12:33 | 52.12892 | 14.12726 | 27348 ft | 350 kts | 176° |
| 2026-04-24 12:33 | 52.10477 | 14.13227 | 27020 ft | 347 kts | 176° |
| 2026-04-24 12:33 | 52.08086 | 14.13719 | 26685 ft | 345 kts | 176° |
| 2026-04-24 12:34 | 52.05711 | 14.14206 | 26357 ft | 342 kts | 176° |
| 2026-04-24 12:34 | 52.03380 | 14.14683 | 26044 ft | 340 kts | 176° |
| 2026-04-24 12:34 | 52.01038 | 14.15162 | 25652 ft | 340 kts | 176° |
| 2026-04-24 12:34 | 51.98654 | 14.15646 | 25010 ft | 350 kts | 176° |
| 2026-04-24 12:35 | 51.96195 | 14.16142 | 24363 ft | 359 kts | 176° |
| 2026-04-24 12:35 | 51.93696 | 14.16650 | 23891 ft | 362 kts | 175° |
| 2026-04-24 12:35 | 51.91198 | 14.17162 | 23457 ft | 362 kts | 175° |
| 2026-04-24 12:35 | 51.88736 | 14.17668 | 23044 ft | 360 kts | 175° |
| 2026-04-24 12:36 | 51.86260 | 14.18175 | 22637 ft | 358 kts | 175° |
| 2026-04-24 12:36 | 51.83789 | 14.18681 | 22217 ft | 356 kts | 175° |
| 2026-04-24 12:36 | 51.81336 | 14.19180 | 21807 ft | 354 kts | 175° |
| 2026-04-24 12:36 | 51.78893 | 14.19677 | 21412 ft | 353 kts | 175° |
| 2026-04-24 12:37 | 51.76462 | 14.20172 | 21016 ft | 351 kts | 175° |
| 2026-04-24 12:37 | 51.74044 | 14.20663 | 20627 ft | 349 kts | 175° |
| 2026-04-24 12:37 | 51.71635 | 14.21152 | 20239 ft | 348 kts | 175° |
| 2026-04-24 12:37 | 51.69245 | 14.21636 | 19861 ft | 346 kts | 175° |
| 2026-04-24 12:38 | 51.66864 | 14.22118 | 19481 ft | 344 kts | 175° |
| 2026-04-24 12:38 | 51.64501 | 14.22595 | 18899 ft | 349 kts | 175° |
| 2026-04-24 12:38 | 51.62055 | 14.23086 | 18103 ft | 360 kts | 175° |
| 2026-04-24 12:39 | 51.54239 | 14.24652 | 15331 ft | 392 kts | 174° |
| 2026-04-24 12:39 | 51.51509 | 14.24990 | 14584 ft | 394 kts | 185° |
| 2026-04-24 12:39 | 51.48879 | 14.23911 | 13958 ft | 388 kts | 207° |
| 2026-04-24 12:40 | 51.46557 | 14.21770 | 13323 ft | 382 kts | 218° |
| 2026-04-24 12:40 | 51.44472 | 14.19280 | 12759 ft | 376 kts | 221° |
| 2026-04-24 12:40 | 51.42434 | 14.16682 | 12196 ft | 371 kts | 222° |
| 2026-04-24 12:40 | 51.40402 | 14.14142 | 11619 ft | 369 kts | 220° |
| 2026-04-24 12:41 | 51.38596 | 14.11339 | 11247 ft | 352 kts | 240° |
| 2026-04-24 12:41 | 51.37631 | 14.07876 | 11045 ft | 332 kts | 255° |
| 2026-04-24 12:41 | 51.36637 | 14.04577 | 10636 ft | 333 kts | 236° |
| 2026-04-24 12:41 | 51.34847 | 14.02159 | 9892 ft | 346 kts | 213° |
| 2026-04-24 12:42 | 51.32681 | 14.00437 | 8760 ft | 359 kts | 208° |
| 2026-04-24 12:42 | 51.30401 | 13.98622 | 7748 ft | 368 kts | 211° |
| 2026-04-24 12:42 | 51.28238 | 13.96554 | 7379 ft | 354 kts | 215° |
| 2026-04-24 12:42 | 51.26252 | 13.94417 | 7106 ft | 333 kts | 219° |
| 2026-04-24 12:43 | 51.24516 | 13.92118 | 6650 ft | 316 kts | 224° |
| 2026-04-24 12:43 | 51.22886 | 13.89795 | 5832 ft | 314 kts | 224° |
| 2026-04-24 12:43 | 51.21222 | 13.87482 | 4652 ft | 321 kts | 224° |
| 2026-04-24 12:43 | 51.19516 | 13.85163 | 3390 ft | 328 kts | 223° |
| 2026-04-24 12:44 | 51.17794 | 13.82831 | 2318 ft | 321 kts | 223° |
| 2026-04-24 12:44 | 51.16127 | 13.80548 | 1486 ft | 302 kts | 223° |
| 2026-04-24 12:44 | 51.14627 | 13.78434 | 855 ft | 269 kts | 223° |
| 2026-04-24 12:44 | 51.13417 | 13.76700 | 747 ft | 173 kts | 207° |
| 2026-04-24 12:45 | 51.12888 | 13.75937 | 748 ft | 18 kts | 310° |
| 2026-04-24 12:45 | 51.12883 | 13.75931 | 751 ft | 0 kts | 310° |